| time (UTC) | temp F | wind direction | speed MPH | gust MPH | rain 1hr in | rain 24hr in | rain mn in | humidity % | barometer mb |
| 20260507114237 | 51 | 53 | 0.0 | 0.0 | 0.00 | 0.30 | 0.14 | 94 | 1011.2 |
| 20260507113236 | 51 | 53 | 0.0 | 0.0 | 0.00 | 0.30 | 0.14 | 94 | 1011.2 |
| 20260507112235 | 51 | 117 | 0.0 | 0.0 | 0.00 | 0.30 | 0.14 | 94 | 1010.9 |
| 20260507111133 | 50 | 123 | 0.0 | 0.0 | 0.00 | 0.30 | 0.14 | 94 | 1010.9 |
| 20260507105101 | 50 | 53 | 0.0 | 0.0 | 0.00 | 0.30 | 0.14 | 93 | 1010.6 |
| 20260507104100 | 50 | 74 | 0.0 | 0.0 | 0.00 | 0.30 | 0.14 | 93 | 1010.2 |
| 20260507103028 | 50 | 62 | 0.0 | 0.0 | 0.00 | 0.30 | 0.14 | 93 | 1010.2 |
| 20260507102027 | 49 | 309 | 0.0 | 0.0 | 0.00 | 0.30 | 0.14 | 93 | 1010.2 |
| 20260507101027 | 49 | 309 | 0.0 | 0.0 | 0.00 | 0.30 | 0.14 | 93 | 1009.9 |
| 20260507095955 | 49 | 309 | 0.0 | 0.0 | 0.00 | 0.30 | 0.14 | 93 | 1009.6 |
| 20260507094954 | 49 | 309 | 0.0 | 0.0 | 0.00 | 0.30 | 0.14 | 93 | 1009.9 |
| 20260507093954 | 49 | 309 | 0.0 | 0.0 | 0.01 | 0.30 | 0.14 | 93 | 1009.5 |
| 20260507092953 | 49 | 309 | 0.0 | 0.0 | 0.01 | 0.30 | 0.14 | 93 | 1009.5 |
| 20260507091952 | 49 | 309 | 0.0 | 0.0 | 0.01 | 0.30 | 0.14 | 93 | 1009.5 |
| 20260507090952 | 49 | 309 | 0.0 | 0.0 | 0.01 | 0.30 | 0.14 | 92 | 1009.5 |
| 20260507085920 | 48 | 309 | 0.0 | 1.0 | 0.01 | 0.30 | 0.14 | 92 | 1009.2 |
| 20260507084920 | 48 | 306 | 0.0 | 2.0 | 0.02 | 0.30 | 0.14 | 92 | 1009.5 |
| 20260507083919 | 48 | 303 | 1.0 | 1.0 | 0.02 | 0.29 | 0.13 | 92 | 1009.2 |
| 20260507082918 | 48 | 301 | 1.0 | 3.0 | 0.02 | 0.29 | 0.13 | 92 | 1009.5 |
| 20260507081918 | 48 | 351 | 2.0 | 5.0 | 0.02 | 0.29 | 0.13 | 95 | 1009.5 |
| 20260507080846 | 48 | 336 | 2.0 | 4.0 | 0.04 | 0.29 | 0.13 | 92 | 1009.5 |
| 20260507075846 | 48 | 5 | 2.0 | 2.0 | 0.04 | 0.29 | 0.13 | 92 | 1009.5 |
| 20260507074845 | 49 | 355 | 1.0 | 3.0 | 0.03 | 0.28 | 0.12 | 91 | 1009.5 |
| 20260507073844 | 49 | 293 | 2.0 | 4.0 | 0.03 | 0.27 | 0.11 | 92 | 1009.8 |
| 20260507072844 | 49 | 345 | 2.0 | 4.0 | 0.04 | 0.27 | 0.11 | 91 | 1009.8 |
| 20260507071843 | 49 | 286 | 1.0 | 4.0 | 0.05 | 0.27 | 0.11 | 91 | 1010.2 |
| 20260507070811 | 50 | 287 | 3.0 | 5.0 | 0.05 | 0.25 | 0.09 | 91 | 1009.8 |
| 20260507065740 | 50 | 346 | 2.0 | 4.0 | 0.06 | 0.25 | 0.09 | 91 | 1009.8 |
| 20260507064739 | 50 | 341 | 2.0 | 3.0 | 0.06 | 0.25 | 0.09 | 91 | 1009.8 |
| 20260507063739 | 49 | 298 | 1.0 | 2.0 | 0.06 | 0.24 | 0.08 | 90 | 1009.5 |
| 20260507062707 | 49 | 299 | 1.0 | 3.0 | 0.05 | 0.23 | 0.07 | 90 | 1009.8 |
| 20260507061706 | 50 | 296 | 2.0 | 4.0 | 0.06 | 0.22 | 0.06 | 90 | 1009.8 |
| 20260507060706 | 50 | 284 | 3.0 | 4.0 | 0.04 | 0.20 | 0.04 | 89 | 1009.8 |
| 20260507055705 | 50 | 287 | 1.0 | 5.0 | 0.03 | 0.19 | 0.03 | 89 | 1009.9 |
| 20260507054704 | 51 | 358 | 2.0 | 4.0 | 0.03 | 0.19 | 0.03 | 89 | 1009.2 |
| 20260507053704 | 51 | 331 | 1.0 | 3.0 | 0.02 | 0.18 | 0.02 | 89 | 1009.5 |
| 20260507052703 | 52 | 339 | 1.0 | 6.0 | 0.01 | 0.17 | 0.01 | 89 | 1009.2 |
| 20260507051703 | 52 | 283 | 3.0 | 5.0 | 0.00 | 0.16 | 0.00 | 89 | 1010.2 |
| 20260507050702 | 53 | 286 | 2.0 | 4.0 | 0.00 | 0.16 | 0.00 | 89 | 1009.2 |
| 20260507045701 | 53 | 284 | 1.0 | 5.0 | 0.00 | 0.16 | 0.00 | 90 | 1008.6 |
| 20260507044701 | 54 | 306 | 2.0 | 2.0 | 0.00 | 0.16 | 0.00 | 90 | 1008.6 |
| 20260507043700 | 55 | 290 | 2.0 | 4.0 | 0.01 | 0.16 | 0.00 | 90 | 1008.9 |
| 20260507042659 | 55 | 290 | 1.0 | 2.0 | 0.01 | 0.16 | 0.00 | 90 | 1008.6 |
| 20260507041628 | 55 | 290 | 0.0 | 4.0 | 0.01 | 0.16 | 0.00 | 90 | 1008.6 |
| 20260507040627 | 56 | 290 | 2.0 | 4.0 | 0.01 | 0.16 | 0.00 | 90 | 1008.9 |
| 20260507035626 | 56 | 325 | 0.0 | 2.0 | 0.01 | 0.16 | 0.16 | 90 | 1008.9 |
| 20260507034626 | 57 | 323 | 1.0 | 2.0 | 0.01 | 0.16 | 0.16 | 90 | 1008.9 |
| 20260507033625 | 57 | 359 | 1.0 | 3.0 | 0.00 | 0.15 | 0.15 | 89 | 1008.6 |
| 20260507032624 | 58 | 295 | 1.0 | 5.0 | 0.00 | 0.15 | 0.15 | 89 | 1008.3 |
| 20260507031624 | 61 | 17 | 3.0 | 6.0 | 0.05 | 0.15 | 0.15 | 90 | 1008.7 |
| 20260507030623 | 63 | 305 | 0.0 | 0.0 | 0.06 | 0.15 | 0.15 | 90 | 1008.0 |
| 20260507025622 | 63 | 305 | 0.0 | 0.0 | 0.06 | 0.15 | 0.15 | 90 | 1008.0 |
| 20260507024622 | 63 | 305 | 0.0 | 0.0 | 0.07 | 0.15 | 0.15 | 90 | 1008.1 |
| 20260507023621 | 63 | 305 | 1.0 | 2.0 | 0.07 | 0.15 | 0.15 | 89 | 1008.4 |
| 20260507022621 | 63 | 304 | 0.0 | 0.0 | 0.07 | 0.15 | 0.15 | 89 | 1008.1 |
| 20260507021620 | 63 | 304 | 0.0 | 2.0 | 0.02 | 0.10 | 0.10 | 88 | 1008.1 |
| 20260507020619 | 63 | 313 | 1.0 | 3.0 | 0.01 | 0.09 | 0.09 | 87 | 1008.5 |
| 20260507015619 | 63 | 5 | 2.0 | 3.0 | 0.01 | 0.09 | 0.09 | 86 | 1008.1 |
| 20260507014618 | 63 | 101 | 0.0 | 2.0 | 0.00 | 0.08 | 0.08 | 86 | 1008.4 |
| 20260507013617 | 63 | 296 | 0.0 | 2.0 | 0.00 | 0.08 | 0.08 | 85 | 1008.1 |
| 20260507012617 | 63 | 290 | 0.0 | 2.0 | 0.00 | 0.08 | 0.08 | 85 | 1008.1 |
| 20260507011616 | 63 | 44 | 2.0 | 2.0 | 0.00 | 0.08 | 0.08 | 85 | 1007.7 |
| 20260507010615 | 62 | 50 | 1.0 | 4.0 | 0.00 | 0.08 | 0.08 | 86 | 1007.7 |
| 20260507005544 | 62 | 80 | 0.0 | 0.0 | 0.00 | 0.08 | 0.08 | 85 | 1008.1 |
| 20260507004543 | 62 | 80 | 1.0 | 1.0 | 0.00 | 0.08 | 0.08 | 85 | 1007.7 |
| 20260507003543 | 62 | 80 | 0.0 | 0.0 | 0.00 | 0.08 | 0.08 | 85 | 1007.4 |
| 20260507002542 | 62 | 80 | 0.0 | 3.0 | 0.00 | 0.08 | 0.08 | 85 | 1007.4 |
| 20260507001510 | 62 | 329 | 0.0 | 2.0 | 0.00 | 0.08 | 0.08 | 84 | 1007.0 |
| 20260507000510 | 62 | 60 | 1.0 | 2.0 | 0.00 | 0.08 | 0.08 | 84 | 1007.0 |
| 20260506235509 | 62 | 266 | 1.0 | 2.0 | 0.00 | 0.08 | 0.08 | 83 | 1007.0 |
| 20260506234509 | 63 | 267 | 0.0 | 1.0 | 0.00 | 0.08 | 0.08 | 82 | 1007.0 |
| 20260506233508 | 63 | 321 | 0.0 | 2.0 | 0.00 | 0.08 | 0.08 | 82 | 1007.3 |
| 20260506232436 | 63 | 5 | 1.0 | 1.0 | 0.00 | 0.08 | 0.08 | 81 | 1007.0 |
| 20260506231405 | 63 | 75 | 2.0 | 6.0 | 0.00 | 0.08 | 0.08 | 80 | 1007.0 |
| 20260506230404 | 64 | 41 | 0.0 | 1.0 | 0.00 | 0.08 | 0.08 | 81 | 1007.0 |
| 20260506225333 | 64 | 40 | 1.0 | 3.0 | 0.00 | 0.08 | 0.08 | 80 | 1007.0 |
| 20260506224332 | 64 | 8 | 2.0 | 3.0 | 0.00 | 0.08 | 0.08 | 79 | 1007.0 |
| 20260506223331 | 65 | 78 | 1.0 | 3.0 | 0.00 | 0.08 | 0.08 | 78 | 1007.0 |
| 20260506222331 | 66 | 255 | 3.0 | 6.0 | 0.00 | 0.08 | 0.08 | 77 | 1006.7 |
| 20260506221330 | 67 | 323 | 2.0 | 5.0 | 0.00 | 0.08 | 0.08 | 76 | 1007.0 |
| 20260506220330 | 68 | 320 | 1.0 | 3.0 | 0.00 | 0.08 | 0.08 | 75 | 1007.1 |
| 20260506215329 | 67 | 340 | 2.0 | 4.0 | 0.00 | 0.08 | 0.08 | 76 | 1006.7 |
| 20260506214329 | 65 | 326 | 2.0 | 6.0 | 0.00 | 0.08 | 0.08 | 78 | 1006.7 |
| 20260506213328 | 64 | 245 | 2.0 | 5.0 | 0.00 | 0.08 | 0.08 | 80 | 1006.7 |
| 20260506212327 | 65 | 245 | 1.0 | 6.0 | 0.00 | 0.08 | 0.08 | 79 | 1006.7 |
| 20260506211327 | 65 | 273 | 3.0 | 6.0 | 0.00 | 0.08 | 0.08 | 78 | 1006.3 |
| 20260506210255 | 64 | 308 | 2.0 | 4.0 | 0.00 | 0.08 | 0.08 | 79 | 1006.7 |
| 20260506205255 | 63 | 304 | 1.0 | 5.0 | 0.00 | 0.08 | 0.08 | 80 | 1006.3 |
| 20260506204254 | 63 | 341 | 2.0 | 7.0 | 0.00 | 0.08 | 0.08 | 81 | 1006.3 |
| 20260506203253 | 63 | 290 | 3.0 | 7.0 | 0.00 | 0.08 | 0.08 | 82 | 1006.3 |
| 20260506202151 | 62 | 327 | 2.0 | 7.0 | 0.00 | 0.08 | 0.08 | 83 | 1006.3 |
| 20260506201119 | 63 | 209 | 1.0 | 6.0 | 0.00 | 0.08 | 0.08 | 83 | 1006.3 |
| 20260506200118 | 63 | 335 | 2.0 | 5.0 | 0.00 | 0.08 | 0.08 | 85 | 1006.3 |
| 20260506195118 | 63 | 337 | 3.0 | 7.0 | 0.00 | 0.08 | 0.08 | 87 | 1006.7 |
| 20260506194046 | 62 | 355 | 1.0 | 4.0 | 0.00 | 0.08 | 0.08 | 88 | 1006.7 |
| 20260506193014 | 62 | 20 | 1.0 | 5.0 | 0.00 | 0.08 | 0.08 | 88 | 1007.0 |
| 20260506192014 | 62 | 249 | 2.0 | 6.0 | 0.00 | 0.08 | 0.08 | 88 | 1007.0 |
| 20260506191013 | 62 | 236 | 2.0 | 6.0 | 0.00 | 0.08 | 0.08 | 88 | 1007.0 |
| 20260506190012 | 62 | 95 | 2.0 | 7.0 | 0.00 | 0.08 | 0.08 | 88 | 1007.0 |
| 20260506185012 | 62 | 142 | 3.0 | 8.0 | 0.00 | 0.08 | 0.08 | 88 | 1007.0 |
| 20260506184011 | 62 | 289 | 4.0 | 8.0 | 0.00 | 0.08 | 0.08 | 89 | 1007.0 |
| 20260506183010 | 61 | 322 | 2.0 | 11.0 | 0.00 | 0.08 | 0.08 | 89 | 1007.3 |
| 20260506182010 | 61 | 74 | 2.0 | 9.0 | 0.00 | 0.08 | 0.08 | 89 | 1007.3 |
| 20260506181009 | 62 | 9 | 3.0 | 7.0 | 0.00 | 0.08 | 0.08 | 89 | 1007.3 |
| 20260506180009 | 62 | 251 | 3.0 | 7.0 | 0.00 | 0.08 | 0.08 | 89 | 1007.4 |
| 20260506175008 | 61 | 168 | 3.0 | 7.0 | 0.00 | 0.08 | 0.08 | 89 | 1007.4 |
| 20260506174008 | 61 | 342 | 2.0 | 6.0 | 0.00 | 0.08 | 0.08 | 89 | 1007.4 |
| 20260506173007 | 61 | 328 | 3.0 | 10.0 | 0.01 | 0.08 | 0.08 | 89 | 1007.4 |
| 20260506172007 | 62 | 279 | 3.0 | 6.0 | 0.01 | 0.08 | 0.08 | 89 | 1007.7 |
| 20260506171006 | 62 | 136 | 2.0 | 7.0 | 0.03 | 0.08 | 0.08 | 89 | 1007.4 |
| 20260506170006 | 62 | 93 | 3.0 | 5.0 | 0.03 | 0.08 | 0.08 | 90 | 1007.4 |
| 20260506165005 | 62 | 48 | 3.0 | 8.0 | 0.05 | 0.08 | 0.08 | 89 | 1007.4 |
| 20260506164004 | 62 | 63 | 2.0 | 6.0 | 0.05 | 0.08 | 0.08 | 89 | 1007.7 |
| 20260506163004 | 61 | 188 | 2.0 | 9.0 | 0.06 | 0.07 | 0.07 | 89 | 1007.7 |
| 20260506162003 | 61 | 62 | 1.0 | 2.0 | 0.06 | 0.07 | 0.07 | 89 | 1008.1 |
| 20260506161003 | 61 | 40 | 0.0 | 3.0 | 0.05 | 0.05 | 0.05 | 88 | 1008.8 |
| 20260506160002 | 61 | 37 | 1.0 | 3.0 | 0.05 | 0.05 | 0.05 | 88 | 1008.8 |
| 20260506155001 | 61 | 199 | 3.0 | 4.0 | 0.03 | 0.03 | 0.03 | 87 | 1009.1 |
| 20260506154001 | 61 | 0 | 1.0 | 2.0 | 0.03 | 0.03 | 0.03 | 86 | 1009.1 |
| 20260506153000 | 61 | 315 | 2.0 | 2.0 | 0.01 | 0.01 | 0.01 | 84 | 1008.8 |
| 20260506151959 | 61 | 82 | 1.0 | 5.0 | 0.01 | 0.01 | 0.01 | 82 | 1009.1 |
| 20260506150958 | 62 | 26 | 0.0 | 4.0 | 0.00 | 0.00 | 0.00 | 80 | 1009.1 |
| 20260506145958 | 62 | 333 | 2.0 | 5.0 | 0.00 | 0.00 | 0.00 | 78 | 1008.4 |
| 20260506144957 | 63 | 67 | 1.0 | 4.0 | 0.00 | 0.00 | 0.00 | 76 | 1008.8 |
| 20260506143957 | 64 | 101 | 2.0 | 8.0 | 0.00 | 0.00 | 0.00 | 74 | 1008.8 |
| 20260506142956 | 66 | 19 | 1.0 | 8.0 | 0.00 | 0.00 | 0.00 | 72 | 1009.2 |
| 20260506141956 | 67 | 307 | 2.0 | 7.0 | 0.00 | 0.00 | 0.00 | 71 | 1008.9 |
| 20260506140955 | 68 | 336 | 2.0 | 7.0 | 0.00 | 0.00 | 0.00 | 71 | 1008.9 |
| 20260506135954 | 68 | 341 | 3.0 | 9.0 | 0.00 | 0.00 | 0.00 | 70 | 1008.9 |
| 20260506134923 | 66 | 305 | 2.0 | 8.0 | 0.00 | 0.00 | 0.00 | 72 | 1008.5 |
| 20260506133922 | 66 | 162 | 2.0 | 6.0 | 0.00 | 0.00 | 0.00 | 72 | 1008.9 |
| 20260506132850 | 65 | 63 | 3.0 | 7.0 | 0.00 | 0.00 | 0.00 | 73 | 1008.9 |
| 20260506131818 | 65 | 299 | 1.0 | 7.0 | 0.00 | 0.00 | 0.00 | 73 | 1008.9 |
| 20260506130818 | 66 | 5 | 3.0 | 9.0 | 0.00 | 0.00 | 0.00 | 73 | 1009.2 |
| 20260506125746 | 65 | 59 | 3.0 | 7.0 | 0.00 | 0.00 | 0.00 | 73 | 1009.2 |
| 20260506124746 | 65 | 268 | 3.0 | 8.0 | 0.00 | 0.00 | 0.00 | 73 | 1008.9 |
| 20260506123745 | 64 | 274 | 3.0 | 10.0 | 0.00 | 0.00 | 0.00 | 74 | 1008.9 |
| 20260506122744 | 64 | 307 | 2.0 | 4.0 | 0.00 | 0.00 | 0.00 | 74 | 1008.9 |
| 20260506121744 | 63 | 31 | 2.0 | 8.0 | 0.00 | 0.00 | 0.00 | 74 | 1008.5 |
| 20260506120712 | 62 | 55 | 2.0 | 5.0 | 0.00 | 0.00 | 0.00 | 75 | 1008.9 |
| 20260506115712 | 62 | 335 | 3.0 | 6.0 | 0.00 | 0.00 | 0.00 | 76 | 1008.9 |
| 20260506114711 | 62 | 30 | 2.0 | 4.0 | 0.00 | 0.00 | 0.00 | 76 | 1008.9 |